Time;durP1;ratioP1;P1;durP2;ratioP2;P2;SDS_P1;SDS_P2;PMS_P1;PMS_P2;Temp;Humidity;BMP_temperature;BMP_pressure;BME280_temperature;BME280_humidity;BME280_pressure;Samples;Min_cycle;Max_cycle;Signal;HPM_P1;HPM_P2
2023/10/03 00:00:44;;;;;;;17.00;8.05;;;;;;;12.52;72.73;94876.09;5026168;28;20308;-69
2023/10/03 00:03:11;;;;;;;17.75;7.05;;;;;;;12.48;72.75;94883.13;5014685;28;20061;-69
2023/10/03 00:05:41;;;;;;;20.52;7.90;;;;;;;12.44;72.95;94874.91;5024482;28;20022;-69
2023/10/03 00:08:08;;;;;;;23.00;8.70;;;;;;;12.37;73.05;94875.31;5025192;28;20091;-69
2023/10/03 00:10:38;;;;;;;15.85;7.07;;;;;;;12.39;72.78;94880.34;5025735;28;20158;-69
2023/10/03 00:13:07;;;;;;;16.05;7.53;;;;;;;12.33;73.04;94873.53;5025897;28;20033;-69
2023/10/03 00:15:33;;;;;;;13.35;7.13;;;;;;;12.32;73.57;94882.66;5025721;28;20030;-69
2023/10/03 00:17:58;;;;;;;12.98;7.07;;;;;;;12.32;73.20;94885.31;5025932;28;20014;-69
2023/10/03 00:20:24;;;;;;;23.08;8.13;;;;;;;12.33;73.08;94879.66;5025766;28;20025;-69
2023/10/03 00:22:50;;;;;;;19.45;7.47;;;;;;;12.29;73.04;94878.69;5025705;28;20245;-69
2023/10/03 00:25:21;;;;;;;14.23;6.97;;;;;;;12.23;73.14;94880.69;5025715;28;20037;-69
2023/10/03 00:27:51;;;;;;;18.90;6.82;;;;;;;12.22;73.03;94881.75;5025613;28;20026;-69
2023/10/03 00:30:20;;;;;;;13.80;5.85;;;;;;;12.12;73.19;94878.50;5025732;28;20068;-69
2023/10/03 00:32:47;;;;;;;14.45;7.07;;;;;;;12.04;73.38;94872.75;5025580;28;20092;-70
2023/10/03 00:35:14;;;;;;;13.00;7.38;;;;;;;12.00;73.42;94868.31;5025117;28;20030;-70
2023/10/03 00:37:43;;;;;;;14.82;7.93;;;;;;;12.00;73.37;94874.44;5025408;28;20287;-70
2023/10/03 00:43:04;;;;;;;13.60;7.10;;;;;;;11.96;73.42;94878.78;5016296;28;20092;-70
2023/10/03 00:45:30;;;;;;;20.15;7.95;;;;;;;12.00;73.21;94869.09;5025448;28;20243;-70
2023/10/03 00:48:00;;;;;;;16.17;6.75;;;;;;;12.05;72.74;94865.53;5025359;28;20028;-70
2023/10/03 00:50:28;;;;;;;19.15;6.00;;;;;;;12.04;72.61;94866.63;5025205;28;20022;-70
2023/10/03 00:52:58;;;;;;;14.30;6.43;;;;;;;12.05;72.52;94873.56;5025153;28;20025;-69
2023/10/03 00:55:26;;;;;;;17.00;6.63;;;;;;;12.01;72.69;94873.34;5025041;28;20050;-69
2023/10/03 01:00:38;;;;;;;14.45;5.53;;;;;;;12.06;72.58;94882.38;5025097;28;20091;-69
2023/10/03 01:03:28;;;;;;;16.05;6.30;;;;;;;12.06;72.40;94882.38;5024984;28;20033;-70
2023/10/03 01:06:04;;;;;;;13.40;6.82;;;;;;;11.98;72.62;94879.28;5024808;28;20021;-70
2023/10/03 01:08:31;;;;;;;22.40;7.07;;;;;;;11.99;72.72;94880.09;5025072;28;20038;-70
2023/10/03 01:11:00;;;;;;;18.23;6.97;;;;;;;11.98;73.06;94871.25;5024916;28;20116;-70
2023/10/03 01:13:26;;;;;;;14.38;6.45;;;;;;;11.98;72.92;94876.59;5024769;28;20267;-70
2023/10/03 01:15:53;;;;;;;18.35;7.13;;;;;;;11.92;73.08;94879.69;5024790;28;20125;-70
2023/10/03 01:18:20;;;;;;;24.83;6.97;;;;;;;11.91;73.18;94878.91;5024722;28;20030;-70
2023/10/03 01:20:50;;;;;;;10.90;5.75;;;;;;;11.91;73.31;94875.44;5024345;28;20029;-70
2023/10/03 01:23:16;;;;;;;16.27;7.57;;;;;;;11.84;73.76;94873.91;5024565;28;20018;-70
2023/10/03 01:25:43;;;;;;;13.15;6.38;;;;;;;11.82;73.72;94876.09;5024571;28;20014;-69
2023/10/03 01:28:12;;;;;;;19.80;7.55;;;;;;;11.82;73.77;94872.59;5024567;28;20040;-71
2023/10/03 01:30:40;;;;;;;15.57;6.93;;;;;;;11.77;73.97;94868.16;5024388;28;20030;-71
2023/10/03 01:33:07;;;;;;;16.00;6.93;;;;;;;11.73;74.04;94864.50;5024449;28;20058;-70
2023/10/03 01:35:33;;;;;;;24.83;7.18;;;;;;;11.70;74.12;94865.06;5024142;28;20124;-70
2023/10/03 01:37:59;;;;;;;15.07;7.78;;;;;;;11.67;74.23;94860.34;5024224;28;20217;-70
2023/10/03 01:40:26;;;;;;;13.82;7.13;;;;;;;11.64;74.22;94867.06;5024198;28;20022;-69
2023/10/03 01:42:52;;;;;;;15.82;6.43;;;;;;;11.65;74.26;94863.28;5024247;28;20052;-69
2023/10/03 01:45:21;;;;;;;14.88;7.00;;;;;;;11.59;74.40;94863.69;5022911;28;20033;-69
2023/10/03 01:47:50;;;;;;;17.75;7.28;;;;;;;11.59;74.52;94864.47;5023982;28;20029;-69
2023/10/03 01:50:19;;;;;;;14.60;7.22;;;;;;;11.60;74.67;94871.41;5024013;28;20068;-68
2023/10/03 01:52:49;;;;;;;13.75;6.78;;;;;;;11.55;74.59;94868.81;5024254;28;20247;-69
2023/10/03 01:55:20;;;;;;;17.92;6.97;;;;;;;11.58;74.34;94857.56;5023430;28;20037;-70
2023/10/03 01:57:47;;;;;;;21.50;7.15;;;;;;;11.55;74.60;94868.81;5023851;28;20227;-70
2023/10/03 02:00:25;;;;;;;23.80;7.35;;;;;;;11.58;74.49;94867.44;5023792;28;20100;-70
2023/10/03 02:02:56;;;;;;;20.13;8.07;;;;;;;11.54;74.60;94861.91;5023787;28;20037;-70
2023/10/03 02:05:24;;;;;;;14.80;7.75;;;;;;;11.57;74.65;94861.31;5023874;28;20197;-69
2023/10/03 02:10:35;;;;;;;16.17;6.70;;;;;;;11.41;75.04;94852.78;5023671;28;20044;-71
2023/10/03 02:13:09;;;;;;;18.52;7.10;;;;;;;11.41;75.25;94862.66;5023566;28;20312;-69
2023/10/03 02:15:36;;;;;;;15.60;7.22;;;;;;;11.40;75.21;94855.75;5023643;28;20096;-70
2023/10/03 02:18:03;;;;;;;18.92;6.78;;;;;;;11.39;75.27;94844.25;5023505;28;20105;-70
2023/10/03 02:20:30;;;;;;;13.75;6.88;;;;;;;11.39;75.30;94844.25;5023542;28;20032;-70
2023/10/03 02:22:56;;;;;;;22.55;7.30;;;;;;;11.38;75.31;94840.03;5023708;28;20029;-70
2023/10/03 02:25:29;;;;;;;21.33;7.07;;;;;;;11.40;75.17;94840.53;5023478;28;20017;-69
2023/10/03 02:27:55;;;;;;;;;;;;;;;11.35;75.41;94840.59;5023745;28;20021;-69
2023/10/03 02:30:30;;;;;;;20.40;6.60;;;;;;;11.28;75.60;94832.19;5023471;28;20120;-70
2023/10/03 02:33:03;;;;;;;17.92;7.57;;;;;;;11.28;75.54;94836.75;5023589;28;20342;-70
2023/10/03 02:35:28;;;;;;;14.35;7.32;;;;;;;11.24;75.61;94826.66;5022287;28;20038;-69
2023/10/03 02:37:59;;;;;;;23.00;7.82;;;;;;;11.26;75.50;94833.56;5022961;28;20106;-69
2023/10/03 02:40:30;;;;;;;16.88;6.93;;;;;;;11.19;75.73;94824.06;5023306;28;20033;-68
2023/10/03 02:42:55;;;;;;;15.37;6.27;;;;;;;11.16;75.82;94829.19;5022103;28;20227;-68
2023/10/03 02:45:23;;;;;;;17.92;7.65;;;;;;;11.16;75.80;94813.97;5023019;28;20045;-68
2023/10/03 02:47:55;;;;;;;13.93;6.28;;;;;;;11.20;75.74;94830.97;5023022;28;20018;-68
2023/10/03 02:50:33;;;;;;;19.15;7.32;;;;;;;11.10;75.80;94812.47;5021632;28;20025;-68
2023/10/03 02:52:59;;;;;;;12.48;6.18;;;;;;;11.11;75.86;94815.94;5021997;28;20029;-68
2023/10/03 02:55:25;;;;;;;11.55;6.15;;;;;;;11.10;76.10;94828.50;5037026;28;20072;-68
2023/10/03 02:57:51;;;;;;;12.65;5.93;;;;;;;11.08;76.10;94828.00;5022858;28;20076;-68
2023/10/03 03:00:16;;;;;;;13.88;6.95;;;;;;;11.08;76.23;94832.53;5022970;28;20057;-70
2023/10/03 03:02:46;;;;;;;14.80;7.05;;;;;;;11.12;76.16;94834.31;5022801;28;20022;-69
2023/10/03 03:05:15;;;;;;;15.73;6.88;;;;;;;11.12;76.02;94831.66;5021703;28;20019;-69
2023/10/03 03:07:48;;;;;;;11.75;6.40;;;;;;;11.09;76.17;94837.56;5025548;28;20029;-68
2023/10/03 03:10:16;;;;;;;16.88;6.88;;;;;;;11.06;76.26;94834.69;5026772;28;20022;-69
2023/10/03 03:12:43;;;;;;;17.63;8.10;;;;;;;11.03;76.42;94836.88;5026957;28;20068;-68
2023/10/03 03:15:33;;;;;;;33.78;9.38;;;;;;;11.06;76.28;94838.16;5026843;28;20032;-68
2023/10/03 03:17:59;;;;;;;21.10;7.47;;;;;;;11.00;76.25;94829.44;5026876;28;20033;-68
2023/10/03 03:20:36;;;;;;;20.30;7.00;;;;;;;11.02;76.22;94839.81;5026899;28;20021;-68
2023/10/03 03:23:02;;;;;;;26.83;7.82;;;;;;;10.99;76.24;94849.22;5026763;28;20033;-68
2023/10/03 03:25:37;;;;;;;17.98;7.30;;;;;;;10.95;76.47;94845.53;5026866;28;20267;-68
2023/10/03 03:28:15;;;;;;;20.67;6.90;;;;;;;10.93;76.57;94854.88;5025483;28;20036;-68
2023/10/03 03:30:56;;;;;;;17.13;6.88;;;;;;;10.95;76.63;94850.06;5026570;28;20093;-68
2023/10/03 03:33:26;;;;;;;18.15;7.80;;;;;;;10.98;76.41;94850.28;5026772;28;20046;-68
2023/10/03 03:35:51;;;;;;;14.50;7.68;;;;;;;10.93;76.66;94853.03;5026653;28;20029;-68
2023/10/03 03:38:18;;;;;;;21.73;6.85;;;;;;;10.92;76.71;94856.00;5026408;28;20105;-68
2023/10/03 03:40:46;;;;;;;16.13;7.32;;;;;;;10.89;76.87;94852.03;5026295;28;20035;-69
2023/10/03 03:43:13;;;;;;;24.48;6.97;;;;;;;10.90;76.87;94858.16;5025193;28;20021;-70
2023/10/03 03:45:39;;;;;;;21.20;8.00;;;;;;;10.92;76.81;94862.09;5026350;28;20017;-70
2023/10/03 03:48:06;;;;;;;18.70;7.93;;;;;;;10.92;76.64;94856.78;5026456;28;20018;-71
2023/10/03 03:50:31;;;;;;;17.65;7.18;;;;;;;10.88;77.08;94858.44;5026180;28;20018;-71
2023/10/03 03:53:02;;;;;;;18.42;8.15;;;;;;;10.88;77.11;94855.78;5026358;28;20215;-68
2023/10/03 03:55:29;;;;;;;24.95;8.15;;;;;;;10.83;77.33;94864.66;5026251;28;20025;-68
2023/10/03 03:58:18;;;;;;;17.67;7.68;;;;;;;10.77;77.70;94871.13;5025981;28;20076;-68
2023/10/03 04:00:50;;;;;;;18.85;7.47;;;;;;;10.76;77.63;94866.88;5026191;28;20049;-71
2023/10/03 04:03:16;;;;;;;;;;;;;;;10.71;77.88;94871.50;5026310;28;20029;-71
2023/10/03 04:05:42;;;;;;;18.23;7.53;;;;;;;10.68;77.81;94872.06;5024741;28;19980;-71
2023/10/03 04:08:08;;;;;;;19.08;7.65;;;;;;;10.64;77.90;94864.66;5025916;28;20026;-71
2023/10/03 04:10:36;;;;;;;18.05;7.43;;;;;;;10.58;78.16;94867.66;5025708;28;20026;-71
2023/10/03 04:13:10;;;;;;;27.15;7.93;;;;;;;10.50;78.57;94869.13;5025890;28;20026;-69
2023/10/03 04:15:39;;;;;;;16.60;8.00;;;;;;;10.51;78.58;94872.56;5025695;28;20351;-70
2023/10/03 04:18:06;;;;;;;19.15;8.52;;;;;;;10.54;78.45;94872.81;5024042;28;20029;-70
2023/10/03 04:20:33;;;;;;;13.10;6.93;;;;;;;10.56;78.40;94870.66;5025773;28;20028;-70
2023/10/03 04:22:58;;;;;;;18.15;7.78;;;;;;;10.53;78.42;94873.88;5025454;28;20021;-70
2023/10/03 04:25:24;;;;;;;22.67;8.60;;;;;;;10.52;78.17;94866.97;5025652;28;20338;-69
2023/10/03 04:27:54;;;;;;;20.55;8.68;;;;;;;10.55;78.04;94874.38;5025643;28;20064;-70
2023/10/03 04:30:23;;;;;;;18.92;7.90;;;;;;;10.54;78.02;94872.81;5025509;28;20060;-70
2023/10/03 04:32:49;;;;;;;26.80;8.38;;;;;;;10.52;78.01;94866.97;5025271;28;20036;-70
2023/10/03 04:35:15;;;;;;;17.50;7.50;;;;;;;10.50;78.30;94869.13;5025477;28;20023;-71
2023/10/03 04:37:44;;;;;;;15.15;6.65;;;;;;;10.51;77.87;94865.38;5025256;28;20037;-70
2023/10/03 04:40:13;;;;;;;20.42;7.78;;;;;;;10.49;78.06;94864.88;5025381;28;20045;-69
2023/10/03 04:42:38;;;;;;;21.77;8.02;;;;;;;10.49;78.03;94858.75;5025243;28;20093;-70
2023/10/03 04:45:10;;;;;;;21.92;7.60;;;;;;;10.51;78.08;94862.69;5024035;28;20021;-69
2023/10/03 04:47:41;;;;;;;26.60;7.97;;;;;;;10.52;77.96;94858.97;5025219;28;20022;-70
2023/10/03 04:50:07;;;;;;;38.28;8.50;;;;;;;10.59;77.97;94858.59;5025306;28;20029;-70
2023/10/03 04:52:32;;;;;;;39.15;9.60;;;;;;;10.62;78.02;94852.69;5025256;28;20036;-70
2023/10/03 04:54:58;;;;;;;32.50;9.23;;;;;;;10.60;78.12;94858.31;5025256;28;20248;-70
2023/10/03 04:57:27;;;;;;;30.48;8.18;;;;;;;10.60;78.22;94866.31;5024951;28;20037;-70
2023/10/03 04:59:56;;;;;;;22.25;9.80;;;;;;;10.63;78.36;94852.41;5024911;28;20215;-70
2023/10/03 05:02:24;;;;;;;27.30;8.70;;;;;;;10.72;78.24;94867.75;5023836;28;20038;-70
2023/10/03 05:04:49;;;;;;;23.70;7.78;;;;;;;10.77;78.35;94859.69;5025004;28;20221;-70
2023/10/03 05:07:15;;;;;;;23.02;8.07;;;;;;;10.80;78.32;94869.75;5024934;28;20025;-70
2023/10/03 05:09:40;;;;;;;25.13;7.55;;;;;;;10.81;78.34;94866.03;5024630;28;20025;-70
2023/10/03 05:12:06;;;;;;;31.52;8.70;;;;;;;10.78;78.82;94869.25;5024745;28;20052;-70
2023/10/03 05:14:31;;;;;;;20.95;7.57;;;;;;;10.88;79.05;94879.00;5024445;28;20029;-69
2023/10/03 05:17:00;;;;;;;31.58;8.43;;;;;;;10.93;79.18;94871.72;5024652;28;20096;-71
2023/10/03 05:19:25;;;;;;;24.60;8.20;;;;;;;10.97;79.33;94872.72;5024362;28;20256;-71
2023/10/03 05:21:52;;;;;;;20.23;8.73;;;;;;;11.04;79.48;94877.69;5024342;28;20026;-71
2023/10/03 05:24:19;;;;;;;28.67;8.23;;;;;;;11.14;78.82;94874.06;5024252;28;20018;-72
2023/10/03 05:26:44;;;;;;;28.02;9.20;;;;;;;11.22;78.60;94881.41;5024063;28;20018;-72
2023/10/03 05:29:10;;;;;;;41.47;12.63;;;;;;;11.31;78.08;94878.84;5023301;28;20045;-72
2023/10/03 05:31:40;;;;;;;22.02;8.90;;;;;;;11.38;77.59;94881.94;5024274;28;20026;-72
2023/10/03 05:34:09;;;;;;;31.73;9.52;;;;;;;11.45;77.03;94885.00;5023985;28;20211;-72
2023/10/03 05:36:35;;;;;;;34.65;9.77;;;;;;;11.35;77.14;94885.97;5024001;28;20041;-72
2023/10/03 05:39:00;;;;;;;25.27;9.80;;;;;;;11.41;77.20;94882.13;5023760;28;20105;-72
2023/10/03 05:41:26;;;;;;;27.88;9.40;;;;;;;11.49;77.44;94887.91;5024228;28;20021;-72
2023/10/03 05:43:52;;;;;;;22.40;9.57;;;;;;;11.59;77.08;94885.84;5023849;28;20392;-72
2023/10/03 05:46:17;;;;;;;42.28;9.98;;;;;;;11.67;76.63;94884.38;5023721;28;20024;-71
2023/10/03 05:48:43;;;;;;;27.63;10.82;;;;;;;11.76;76.09;94879.91;5023637;28;20025;-71
2023/10/03 05:51:09;;;;;;;35.33;10.80;;;;;;;11.80;75.89;94888.94;5023930;28;20315;-72
2023/10/03 05:53:35;;;;;;;30.17;10.15;;;;;;;11.71;75.78;94890.72;5023696;28;20042;-75
2023/10/03 05:56:01;;;;;;;42.92;12.00;;;;;;;11.60;76.30;94883.94;5023618;28;20070;-71
2023/10/03 05:58:27;;;;;;;35.80;12.15;;;;;;;11.71;76.17;94893.38;5023514;28;20026;-71
2023/10/03 06:00:52;;;;;;;34.17;13.18;;;;;;;11.76;76.06;94890.59;5023518;28;20320;-71
2023/10/03 06:03:18;;;;;;;31.15;13.07;;;;;;;11.84;75.78;94891.81;5023698;28;20029;-71
2023/10/03 06:05:47;;;;;;;38.78;11.65;;;;;;;12.02;75.19;94890.16;5023654;28;20022;-71
2023/10/03 06:08:13;;;;;;;28.42;10.85;;;;;;;12.13;74.98;94894.25;5023336;28;20041;-71
2023/10/03 06:10:39;;;;;;;38.08;11.15;;;;;;;12.20;74.44;94891.94;5023382;28;20220;-71
2023/10/03 06:13:11;;;;;;;33.67;11.15;;;;;;;12.22;74.29;94891.66;5023488;28;20030;-71
2023/10/03 06:15:40;;;;;;;;;;;;;;;12.27;74.17;94888.09;5023671;28;20101;-72
2023/10/03 06:18:05;;;;;;;40.33;11.90;;;;;;;12.28;74.27;94895.81;5023222;28;20245;-72
2023/10/03 06:20:34;;;;;;;37.10;11.82;;;;;;;12.36;73.85;94891.66;5022132;28;20050;-72
2023/10/03 06:23:00;;;;;;;30.20;13.05;;;;;;;12.42;73.37;94898.47;5023224;28;20034;-72
2023/10/03 06:25:25;;;;;;;36.40;12.82;;;;;;;12.31;73.83;94895.22;5023414;28;20028;-72
2023/10/03 06:27:50;;;;;;;35.88;14.35;;;;;;;12.44;73.68;94898.97;5023194;28;20029;-70
2023/10/03 06:30:17;;;;;;;28.95;12.75;;;;;;;12.56;73.43;94896.59;5023025;28;20021;-71
2023/10/03 06:32:44;;;;;;;40.58;10.63;;;;;;;12.75;72.14;94909.03;5021899;28;20127;-70
2023/10/03 06:35:09;;;;;;;27.20;11.85;;;;;;;12.84;71.53;94917.91;5022832;28;20244;-74
2023/10/03 06:37:37;;;;;;;34.95;13.50;;;;;;;12.93;71.24;94916.13;5022862;28;20030;-73
2023/10/03 06:40:06;;;;;;;31.70;13.30;;;;;;;12.83;70.91;94911.00;5022906;28;20033;-72
2023/10/03 06:42:35;;;;;;;30.58;11.30;;;;;;;12.90;70.61;94913.25;5022911;28;20032;-73
2023/10/03 06:45:04;;;;;;;27.73;11.48;;;;;;;12.91;70.59;94918.31;5022764;28;20292;-73
2023/10/03 06:47:33;;;;;;;38.70;11.68;;;;;;;12.95;70.41;94921.19;5023225;28;20025;-74
2023/10/03 06:49:59;;;;;;;32.05;12.27;;;;;;;13.01;70.34;94919.97;5023022;28;20029;-72
2023/10/03 06:52:25;;;;;;;30.83;12.80;;;;;;;13.08;70.00;94911.50;5022784;28;20034;-72
2023/10/03 06:54:51;;;;;;;28.52;12.90;;;;;;;13.11;70.36;94921.59;5037917;28;20097;-72
2023/10/03 06:57:16;;;;;;;32.33;12.13;;;;;;;13.14;70.30;94919.13;5022997;28;20228;-72
2023/10/03 06:59:41;;;;;;;27.33;12.15;;;;;;;13.16;70.46;94924.16;5021718;28;20022;-72
2023/10/03 07:02:08;;;;;;;28.95;12.13;;;;;;;13.10;70.41;94914.69;5022715;28;20029;-72
2023/10/03 07:04:34;;;;;;;34.05;11.07;;;;;;;13.13;70.39;94922.91;5022552;28;20244;-72
2023/10/03 07:06:59;;;;;;;35.88;11.43;;;;;;;13.18;69.64;94930.00;5022704;28;20036;-75
2023/10/03 07:09:25;;;;;;;34.05;9.75;;;;;;;13.09;69.61;94927.28;5022770;28;20096;-71
2023/10/03 07:11:50;;;;;;;26.08;10.55;;;;;;;13.16;69.64;94929.53;5022886;28;20053;-71
2023/10/03 07:14:16;;;;;;;34.53;11.32;;;;;;;13.20;69.89;94936.63;5022816;28;20041;-71
2023/10/03 07:16:42;;;;;;;28.20;11.07;;;;;;;13.21;69.37;94937.47;5022683;28;20028;-71
2023/10/03 07:19:13;;;;;;;32.50;11.27;;;;;;;13.23;69.29;94941.41;5038185;28;20030;-71
2023/10/03 07:21:39;;;;;;;31.25;9.85;;;;;;;13.35;69.40;94942.75;5022842;28;20097;-71
2023/10/03 07:24:05;;;;;;;26.05;10.10;;;;;;;13.47;67.96;94942.22;5022714;28;20251;-71
2023/10/03 07:26:31;;;;;;;25.65;10.82;;;;;;;13.59;67.76;94947.81;5037984;28;20021;-72
2023/10/03 07:28:59;;;;;;;25.88;10.70;;;;;;;13.70;67.19;94941.13;5022698;28;20029;-71
2023/10/03 07:31:25;;;;;;;23.98;9.75;;;;;;;13.74;66.70;94946.66;5022744;28;20026;-72
2023/10/03 07:33:52;;;;;;;27.40;12.10;;;;;;;13.84;66.31;94946.41;5022660;28;20248;-72
2023/10/03 07:36:18;;;;;;;22.15;9.93;;;;;;;13.89;65.94;94948.19;5022693;28;20038;-71
2023/10/03 07:38:47;;;;;;;38.38;11.68;;;;;;;13.93;66.10;94944.56;5022463;28;20053;-72
2023/10/03 07:41:13;;;;;;;23.60;8.80;;;;;;;13.97;65.79;94952.78;5020876;28;20033;-71
2023/10/03 07:43:40;;;;;;;20.20;9.50;;;;;;;14.07;65.54;94946.38;5022051;28;20068;-71
2023/10/03 07:46:05;;;;;;;23.95;10.25;;;;;;;14.11;65.43;94940.09;5021900;28;20036;-71
2023/10/03 07:48:31;;;;;;;32.70;10.90;;;;;;;14.21;65.53;94939.03;5020515;28;20343;-70
2023/10/03 07:50:56;;;;;;;26.50;9.88;;;;;;;14.34;65.11;94935.44;5020776;28;20022;-70
2023/10/03 07:53:21;;;;;;;27.63;10.02;;;;;;;14.36;64.34;94941.28;5022659;28;20018;-70
2023/10/03 07:55:47;;;;;;;20.85;9.75;;;;;;;14.40;64.06;94934.19;5024012;28;20061;-70
2023/10/03 07:58:15;;;;;;;22.15;11.18;;;;;;;14.50;63.80;94935.03;5024182;28;20050;-71
2023/10/03 08:00:44;;;;;;;20.42;10.63;;;;;;;14.58;63.38;94939.66;5023152;28;20024;-70
2023/10/03 08:03:11;;;;;;;30.75;10.45;;;;;;;14.65;63.17;94939.97;5025925;28;20147;-71
2023/10/03 08:05:40;;;;;;;20.48;10.00;;;;;;;14.74;63.64;94931.97;5025944;28;20064;-80
2023/10/03 08:08:05;;;;;;;25.40;10.60;;;;;;;14.83;62.39;94930.06;5026002;28;20025;-78
2023/10/03 08:10:32;;;;;;;24.17;10.68;;;;;;;14.88;62.58;94927.25;5026042;28;20423;-78
2023/10/03 08:12:59;;;;;;;25.15;10.02;;;;;;;14.94;62.07;94920.63;5026019;28;20022;-79
2023/10/03 08:15:31;;;;;;;24.02;10.25;;;;;;;15.04;62.05;94930.25;5025780;28;20029;-79
2023/10/03 08:17:57;;;;;;;;;;;;;;;15.12;60.18;94926.81;5026437;28;20030;-81
2023/10/03 08:20:24;;;;;;;22.90;9.32;;;;;;;15.11;60.26;94927.13;5025727;28;19977;-81
2023/10/03 08:22:52;;;;;;;22.17;10.43;;;;;;;15.21;59.64;94930.28;5024750;28;20232;-79
2023/10/03 08:25:22;;;;;;;23.17;10.38;;;;;;;15.32;59.73;94930.72;5025670;28;20017;-81
2023/10/03 08:27:49;;;;;;;24.38;10.20;;;;;;;15.47;59.69;94925.97;5025935;28;20029;-80
2023/10/03 08:30:28;;;;;;;27.52;10.95;;;;;;;15.59;59.91;94924.25;5025632;28;20041;-79
2023/10/03 08:33:04;;;;;;;34.88;10.27;;;;;;;15.78;59.71;94923.91;5025507;28;20268;-80
2023/10/03 08:35:39;;;;;;;27.13;9.90;;;;;;;15.91;58.45;94919.44;5025437;28;20026;-80
2023/10/03 08:38:07;;;;;;;26.15;9.85;;;;;;;16.01;58.31;94921.78;5025537;28;20037;-79
2023/10/03 08:40:36;;;;;;;26.38;10.00;;;;;;;16.13;57.50;94925.72;5025300;28;20029;-80
2023/10/03 08:43:10;;;;;;;26.63;9.82;;;;;;;16.21;56.99;94909.56;5025446;28;20273;-79
2023/10/03 08:45:52;;;;;;;16.83;8.82;;;;;;;16.36;56.25;94915.50;5024220;28;20217;-79
2023/10/03 08:48:26;;;;;;;18.45;8.43;;;;;;;16.51;55.79;94909.59;5025406;28;20124;-80
2023/10/03 08:50:56;;;;;;;20.23;7.90;;;;;;;16.54;55.33;94906.22;5025187;28;20104;-81
2023/10/03 08:53:26;;;;;;;23.70;8.43;;;;;;;16.67;54.88;94903.63;5025315;28;20014;-80
2023/10/03 08:56:02;;;;;;;20.70;8.38;;;;;;;16.77;54.73;94905.94;5025011;28;20021;-81
2023/10/03 08:58:28;;;;;;;29.02;9.10;;;;;;;16.86;53.79;94897.84;5025320;28;20022;-81
2023/10/03 09:01:02;;;;;;;24.75;8.52;;;;;;;16.87;53.26;94899.41;5025061;28;20024;-80
2023/10/03 09:03:47;;;;;;;18.73;8.48;;;;;;;16.84;53.87;94895.47;5023598;28;20089;-80
2023/10/03 09:06:19;;;;;;;17.70;7.15;;;;;;;16.87;54.28;94888.66;5024520;28;20028;-80
2023/10/03 09:08:51;;;;;;;22.83;8.18;;;;;;;16.93;53.48;94890.03;5024888;28;20057;-80
2023/10/03 09:11:18;;;;;;;17.70;7.25;;;;;;;16.98;53.65;94890.63;5024884;28;20338;-79
2023/10/03 09:13:48;;;;;;;17.98;7.95;;;;;;;17.07;53.60;94890.56;5024592;28;20356;-79
2023/10/03 09:16:19;;;;;;;24.77;9.73;;;;;;;17.18;53.55;94893.66;5024496;28;20097;-79
2023/10/03 09:18:50;;;;;;;23.65;8.90;;;;;;;17.36;53.89;94894.28;5024643;28;20021;-79
2023/10/03 09:21:23;;;;;;;30.25;8.57;;;;;;;17.52;53.79;94902.53;5023163;28;20320;-80
2023/10/03 09:24:02;;;;;;;33.75;9.25;;;;;;;17.69;52.80;94893.50;5023257;28;20096;-78
2023/10/03 09:26:51;;;;;;;21.73;8.85;;;;;;;17.78;51.29;94894.97;5024680;28;20025;-78
2023/10/03 09:29:29;;;;;;;22.75;7.75;;;;;;;17.82;52.15;94887.03;5024291;28;20071;-79
2023/10/03 09:31:57;;;;;;;21.25;8.20;;;;;;;17.94;51.92;94881.69;5024606;28;20026;-78
2023/10/03 09:34:39;;;;;;;23.10;8.07;;;;;;;18.07;52.17;94881.69;5024315;28;20022;-78
2023/10/03 09:37:05;;;;;;;23.77;7.78;;;;;;;18.22;51.30;94871.03;5024437;28;20212;-77
2023/10/03 09:39:47;;;;;;;22.55;7.88;;;;;;;18.22;50.30;94876.44;5024171;28;20045;-78
2023/10/03 09:42:15;;;;;;;;;;;;;;;18.10;49.88;94879.13;5023667;28;20197;-78
2023/10/03 09:44:43;;;;;;;24.60;8.30;;;;;;;18.04;50.00;94877.75;5024191;28;19909;-78
2023/10/03 09:47:12;;;;;;;26.10;7.82;;;;;;;18.09;50.61;94866.75;5022983;28;20025;-78
2023/10/03 09:49:38;;;;;;;19.70;7.60;;;;;;;18.16;49.77;94868.91;5024082;28;20025;-81
2023/10/03 09:52:09;;;;;;;24.48;8.55;;;;;;;18.21;51.07;94872.16;5023195;28;20026;-82
2023/10/03 09:54:39;;;;;;;28.80;9.02;;;;;;;18.35;49.38;94876.44;5024098;28;20022;-80
2023/10/03 09:57:38;;;;;;;22.80;8.57;;;;;;;18.34;48.92;94866.75;5023977;28;20240;-81
2023/10/03 09:59:58;;;;;;;15.55;6.45;;;;;;;18.40;49.31;94868.13;5021125;28;20034;-80
2023/10/03 10:02:30;;;;;;;23.40;7.40;;;;;;;18.53;49.91;94866.97;5024202;28;20022;-86
2023/10/03 10:05:04;;;;;;;23.42;8.32;;;;;;;18.67;48.25;94857.75;5024553;28;20245;-81
2023/10/03 10:07:50;;;;;;;30.27;7.65;;;;;;;18.83;48.51;94862.13;5024012;28;20028;-87
2023/10/03 10:10:19;;;;;;;19.85;6.82;;;;;;;18.97;47.78;94860.97;5023859;28;20034;-81
2023/10/03 10:13:20;;;;;;;21.60;7.82;;;;;;;19.16;48.04;94857.66;5038887;28;20026;-80
2023/10/03 10:16:03;;;;;;;21.27;7.65;;;;;;;19.34;47.91;94853.53;5023329;28;20026;-80
2023/10/03 10:18:44;;;;;;;20.98;7.72;;;;;;;19.52;46.54;94839.69;5023636;28;20091;-85
2023/10/03 10:21:31;;;;;;;17.45;7.93;;;;;;;19.64;45.77;94839.63;5039800;28;20029;-86
2023/10/03 10:24:36;;;;;;;18.42;8.05;;;;;;;19.68;45.60;94834.31;5024079;28;20209;-79
2023/10/03 10:27:00;;;;;;;24.52;7.93;;;;;;;19.71;45.24;94831.75;5023952;28;20339;-85
2023/10/03 10:29:28;;;;;;;20.42;8.60;;;;;;;19.79;45.04;94827.31;5024033;28;20026;-88
2023/10/03 10:31:58;;;;;;;39.85;7.97;;;;;;;19.91;47.22;94823.75;5024133;28;20028;-81
2023/10/03 10:34:27;;;;;;;20.45;7.38;;;;;;;19.98;45.67;94823.91;5022056;28;20029;-84
2023/10/03 10:37:09;;;;;;;29.80;7.07;;;;;;;19.94;43.77;94821.09;5023258;28;20037;-86
2023/10/03 10:39:54;;;;;;;19.73;8.20;;;;;;;19.94;45.42;94818.41;5023512;28;20083;-79
2023/10/03 10:42:26;;;;;;;22.48;8.00;;;;;;;20.07;44.48;94812.91;5038623;28;20065;-80
2023/10/03 10:45:24;;;;;;;22.15;8.00;;;;;;;20.26;46.24;94804.09;5022866;28;20021;-82
2023/10/03 10:47:51;;;;;;;16.40;7.25;;;;;;;20.42;44.42;94805.63;5022745;28;20072;-82
2023/10/03 10:50:21;;;;;;;22.05;7.75;;;;;;;20.55;44.60;94800.88;5021837;28;20049;-82
2023/10/03 10:52:54;;;;;;;27.50;8.93;;;;;;;20.75;43.89;94799.00;5023176;28;20423;-80
2023/10/03 10:55:21;;;;;;;23.33;7.22;;;;;;;20.92;44.00;94797.00;5021641;28;20041;-81
2023/10/03 10:57:48;;;;;;;21.00;7.63;;;;;;;21.03;42.63;94800.75;5022809;28;20025;-80
2023/10/03 11:00:19;;;;;;;17.52;7.45;;;;;;;20.95;41.96;94796.31;5023023;28;20040;-81
2023/10/03 11:02:45;;;;;;;22.43;7.53;;;;;;;20.81;41.29;94799.50;5023188;28;20014;-81
2023/10/03 11:05:10;;;;;;;11.48;5.63;;;;;;;20.64;42.33;94792.59;5021757;28;20649;-81
2023/10/03 11:07:37;;;;;;;18.10;6.65;;;;;;;20.74;42.15;94785.81;5038488;28;20021;-83
2023/10/03 11:10:12;;;;;;;31.65;7.25;;;;;;;20.68;41.52;94793.44;5022943;28;20048;-82
2023/10/03 11:12:37;;;;;;;19.17;7.10;;;;;;;20.54;42.62;94785.75;5023061;28;20044;-82
2023/10/03 11:15:10;;;;;;;18.02;6.68;;;;;;;20.63;42.54;94780.94;5022981;28;20089;-82
2023/10/03 11:17:36;;;;;;;25.98;7.00;;;;;;;20.78;42.33;94776.63;5022534;28;20037;-83
2023/10/03 11:20:08;;;;;;;19.58;6.95;;;;;;;20.94;40.57;94776.53;5023028;28;20026;-83
2023/10/03 11:22:40;;;;;;;15.88;6.57;;;;;;;20.94;40.95;94779.25;5023073;28;20028;-82
2023/10/03 11:25:09;;;;;;;18.02;7.75;;;;;;;20.90;41.20;94764.84;5022628;28;20018;-83
2023/10/03 11:27:35;;;;;;;21.60;7.55;;;;;;;21.02;41.82;94761.22;5023794;28;20041;-81
2023/10/03 11:30:16;;;;;;;14.65;6.32;;;;;;;21.12;41.97;94762.56;5026792;28;20083;-81
2023/10/03 11:32:43;;;;;;;12.02;6.40;;;;;;;21.34;42.54;94756.41;5026665;28;20021;-82
2023/10/03 11:35:20;;;;;;;17.70;7.13;;;;;;;21.54;41.65;94757.19;5025481;28;20021;-82
2023/10/03 11:37:51;;;;;;;19.35;7.13;;;;;;;21.76;40.18;94750.19;5026467;28;20225;-84
2023/10/03 11:40:21;;;;;;;31.48;8.40;;;;;;;21.75;39.77;94751.31;5026475;28;20056;-82
2023/10/03 11:42:55;;;;;;;19.15;7.63;;;;;;;21.86;40.35;94748.00;5026923;28;20048;-84